This is the latest recevied weather packets stored in our database for station/object K7JGC-9. If no packets are shown the sender has not sent any weather packets the latest 10 day(s).
| Time | Temp. | Humidity | Pressure | Rain* | Wind** | Luminosity | Snow |
|---|---|---|---|---|---|---|---|
| 1777884524 | 15° C | 76% | 1009 hPa | 0 mm | - | 0 W/m² | - |
| 1777882720 | 16.11° C | 73% | 1008.8 hPa | 0 mm | - | 0 W/m² | - |
| 1777880919 | 16.67° C | 69% | 1008.6 hPa | 0 mm | - | 0 W/m² | - |
| 1777879116 | 17.78° C | 66% | 1008.5 hPa | 0 mm | - | 0 W/m² | - |
| 1777877313 | 18.33° C | 63% | 1008.2 hPa | 0 mm | - | 0 W/m² | - |
| 1777875512 | 19.44° C | 58% | 1008 hPa | 0 mm | - | 0 W/m² | - |
| 1777873712 | 20° C | 55% | 1007.8 hPa | 0 mm | - | 0 W/m² | - |
| 1777871906 | 21.11° C | 54% | 1007.8 hPa | 0 mm | - | 0 W/m² | - |
| 1777870103 | 21.67° C | 59% | 1007.7 hPa | 0 mm | - | 0 W/m² | - |
| 1777868302 | 22.22° C | 55% | 1007.6 hPa | 0 mm | - | 0 W/m² | - |
| 1777866500 | 22.78° C | 53% | 1007.2 hPa | 0 mm | - | 0 W/m² | - |
| 1777864701 | 24.44° C | 48% | 1006.9 hPa | 0 mm | - | 1 W/m² | - |
| 1777862899 | 26.11° C | 45% | 1006.8 hPa | 0 mm | - | 7 W/m² | - |
| 1777861096 | 27.22° C | 42% | 1006.8 hPa | 0 mm | - | 11 W/m² | - |
| 1777859293 | 28.89° C | 37% | 1006.8 hPa | 0 mm | - | 14 W/m² | - |
| 1777857488 | 30° C | 34% | 1006.9 hPa | 0 mm | - | 20 W/m² | - |
| 1777855684 | 31.67° C | 30% | 1007.1 hPa | 0 mm | - | 60 W/m² | - |
| 1777853883 | 32.22° C | 33% | 1007.4 hPa | 0 mm | - | 95 W/m² | - |
| 1777852079 | 31.67° C | 31% | 1007.4 hPa | 0 mm | - | 28 W/m² | - |
| 1777850273 | 31.67° C | 31% | 1007.8 hPa | 0 mm | - | 29 W/m² | - |
| 1777848469 | 32.22° C | 33% | 1008.2 hPa | 0 mm | - | 30 W/m² | - |
| 1777846665 | 32.78° C | 32% | 1008.6 hPa | 0 mm | - | 31 W/m² | - |
| 1777844860 | 32.22° C | 42% | 1009 hPa | 0 mm | - | 33 W/m² | - |
| 1777843055 | 31.67° C | 47% | 1009.4 hPa | 0 mm | - | 35 W/m² | - |
| 1777841255 | 31.11° C | 47% | 1009.9 hPa | 0 mm | - | 36 W/m² | - |
* Rain latest hour (hover to see other rain measurements)
** Current wind speed in m/s (hover to see current wind gust speed)